Terminal Aerodrome Forecast
Issued by NWS

Current Version | Previous Version | Text Only | Print | Product List | Glossary On
Versions: 1 2 3 4 5 6 7 8 9 10 11 12 13 14 15 16 17 18 19 20 21 22 23 24 25 26 27 28 29 30 31 32 33 34 35 36 37 38 39 40 41 42 43 44 45 46 47 48
346
FTUS45 KGJT 240539
TAFASE
TAF
KASE 240539Z 2406/2506 32005KT P6SM BKN035 OVC045
      TEMPO 2406/2410 2SM -SN BR SCT005 OVC010
     FM241100 35006KT P6SM VCSH OVC030
     FM241400 35008KT P6SM BKN050
     FM241800 VRB04KT P6SM SCT070=

USA.gov is the U.S. government's official web portal to all federal, state and local government web resources and services.